createdAt,value
2022-10-22T00:00:53.309Z,7.76
2022-10-22T00:03:19.685Z,7.53
2022-10-22T00:05:46.057Z,7.51
2022-10-22T00:08:12.421Z,7.49
2022-10-22T00:10:38.781Z,7.39
2022-10-22T00:13:05.158Z,7.54
2022-10-22T00:15:31.518Z,7.75
2022-10-22T00:17:57.876Z,7.40
2022-10-22T00:20:24.256Z,7.29
2022-10-22T00:25:36.985Z,7.35
2022-10-22T00:28:03.654Z,7.42
2022-10-22T00:30:30.019Z,7.27
2022-10-22T00:32:56.396Z,7.21
2022-10-22T00:35:22.771Z,7.12
2022-10-22T00:37:49.139Z,7.07
2022-10-22T00:40:15.497Z,6.60
2022-10-22T00:42:42.107Z,7.06
2022-10-22T00:45:08.759Z,7.52
2022-10-22T00:47:35.325Z,6.94
2022-10-22T00:50:01.695Z,6.85
2022-10-22T00:52:28.064Z,6.76
2022-10-22T00:54:54.430Z,7.27
2022-10-22T00:57:21.172Z,6.73
2022-10-22T00:59:47.535Z,6.90
2022-10-22T01:02:13.915Z,6.36
2022-10-22T01:04:40.269Z,7.10
2022-10-22T01:07:06.635Z,6.82
2022-10-22T01:09:32.996Z,6.61
2022-10-22T01:11:59.369Z,6.43
2022-10-22T01:14:25.741Z,6.45
2022-10-22T01:16:52.113Z,6.30
2022-10-22T01:19:18.467Z,6.36
2022-10-22T01:21:44.826Z,6.77
2022-10-22T01:24:11.206Z,6.45
2022-10-22T01:26:37.582Z,6.33
2022-10-22T01:29:03.952Z,6.54
2022-10-22T01:31:30.314Z,6.31
2022-10-22T01:33:56.680Z,6.31
2022-10-22T01:36:23.046Z,6.24
2022-10-22T01:38:49.410Z,6.41
2022-10-22T01:41:15.789Z,6.14
2022-10-22T01:43:42.152Z,6.25
2022-10-22T01:46:08.525Z,5.96
2022-10-22T01:48:34.878Z,5.80
2022-10-22T01:51:01.250Z,5.61
2022-10-22T01:53:27.647Z,6.00
2022-10-22T01:55:54.011Z,5.78
2022-10-22T01:58:20.386Z,5.90
2022-10-22T02:00:46.775Z,5.73
2022-10-22T02:03:13.157Z,5.78
2022-10-22T02:05:39.536Z,5.91
2022-10-22T02:08:05.892Z,5.55
2022-10-22T02:10:32.252Z,5.69
2022-10-22T02:12:58.618Z,5.83
2022-10-22T02:15:24.964Z,5.69
2022-10-22T02:17:51.335Z,5.69
2022-10-22T02:20:17.706Z,5.79
2022-10-22T02:22:44.068Z,5.84
2022-10-22T02:25:10.430Z,5.28
2022-10-22T02:27:36.816Z,5.53
2022-10-22T02:30:03.251Z,5.38
2022-10-22T02:32:29.645Z,5.47
2022-10-22T02:34:56.017Z,5.44
2022-10-22T02:37:22.376Z,5.64
2022-10-22T02:39:48.745Z,5.33
2022-10-22T02:42:15.099Z,5.41
2022-10-22T02:44:41.451Z,5.74
2022-10-22T02:47:07.838Z,5.17
2022-10-22T02:49:34.203Z,5.39
2022-10-22T02:52:00.575Z,5.22
2022-10-22T02:54:26.933Z,5.38
2022-10-22T02:56:53.299Z,5.18
2022-10-22T02:59:19.663Z,5.12
2022-10-22T03:01:46.037Z,5.00
2022-10-22T03:04:12.404Z,5.21
2022-10-22T03:06:38.770Z,5.26
2022-10-22T03:09:05.230Z,5.34
2022-10-22T03:11:31.613Z,5.25
2022-10-22T03:13:57.978Z,4.80
2022-10-22T03:16:24.354Z,5.10
2022-10-22T03:18:50.723Z,4.89
2022-10-22T03:21:17.082Z,4.96
2022-10-22T03:23:43.444Z,4.87
2022-10-22T03:26:09.816Z,5.08
2022-10-22T03:28:36.192Z,5.05
2022-10-22T03:31:02.550Z,4.93
2022-10-22T03:33:28.900Z,5.08
2022-10-22T03:35:55.270Z,4.86
2022-10-22T03:38:21.643Z,4.82
2022-10-22T03:40:48.015Z,5.12
2022-10-22T03:43:14.371Z,4.76
2022-10-22T03:45:40.726Z,4.76
2022-10-22T03:48:07.097Z,4.64
2022-10-22T03:50:33.466Z,4.54
2022-10-22T03:52:59.824Z,4.63
2022-10-22T03:55:26.185Z,4.61
2022-10-22T03:57:52.545Z,4.80
2022-10-22T04:00:18.900Z,4.58
2022-10-22T04:02:45.282Z,4.53
2022-10-22T04:05:11.660Z,4.67
2022-10-22T04:07:38.194Z,4.34
2022-10-22T04:10:04.742Z,4.43
2022-10-22T04:12:31.106Z,4.46
2022-10-22T04:14:57.470Z,4.41
2022-10-22T04:17:23.942Z,4.25
2022-10-22T04:19:50.299Z,4.36
2022-10-22T04:22:16.666Z,4.42
2022-10-22T04:24:43.076Z,4.43
2022-10-22T04:27:09.449Z,4.22
2022-10-22T04:29:35.814Z,3.99
2022-10-22T04:32:02.181Z,4.37
2022-10-22T04:34:28.532Z,4.52
2022-10-22T04:36:54.909Z,4.07
2022-10-22T04:39:21.281Z,3.80
2022-10-22T04:41:47.645Z,4.10
2022-10-22T04:44:16.862Z,4.20
2022-10-22T04:46:44.688Z,4.20
2022-10-22T04:49:11.054Z,4.05
2022-10-22T04:51:37.446Z,4.01
2022-10-22T04:54:03.823Z,3.89
2022-10-22T04:56:30.189Z,3.86
2022-10-22T04:58:56.556Z,3.96
2022-10-22T05:01:23.029Z,3.80
2022-10-22T05:03:49.467Z,3.75
2022-10-22T05:06:15.843Z,3.83
2022-10-22T05:08:42.292Z,3.83
2022-10-22T05:11:08.669Z,3.72
2022-10-22T05:13:35.024Z,3.83
2022-10-22T05:16:01.384Z,3.70
2022-10-22T05:18:27.745Z,3.94
2022-10-22T05:20:54.130Z,3.69
2022-10-22T05:23:20.487Z,3.76
2022-10-22T05:25:46.866Z,3.75
2022-10-22T05:28:13.233Z,3.58
2022-10-22T05:30:39.605Z,3.77
2022-10-22T05:33:05.964Z,3.65
2022-10-22T05:35:32.338Z,3.49
2022-10-22T05:37:58.720Z,3.33
2022-10-22T05:40:31.238Z,3.50
2022-10-22T05:42:57.894Z,3.78
2022-10-22T05:45:24.252Z,3.55
2022-10-22T05:47:50.619Z,3.65
2022-10-22T05:50:16.980Z,3.38
2022-10-22T05:52:43.542Z,3.48
2022-10-22T05:55:10.103Z,3.56
2022-10-22T05:57:36.461Z,3.49
2022-10-22T06:00:02.821Z,3.11
2022-10-22T06:02:29.265Z,3.41
2022-10-22T06:04:55.673Z,3.28
2022-10-22T06:07:22.058Z,3.04
2022-10-22T06:09:48.434Z,3.25
2022-10-22T06:12:14.813Z,3.47
2022-10-22T06:14:41.178Z,3.24
2022-10-22T06:17:07.542Z,3.41
2022-10-22T06:19:33.914Z,3.27
2022-10-22T06:22:00.324Z,3.49
2022-10-22T06:24:26.688Z,3.24
2022-10-22T06:26:53.041Z,3.27
2022-10-22T06:29:19.426Z,3.03
2022-10-22T06:31:45.788Z,3.09
2022-10-22T06:34:12.143Z,2.96
2022-10-22T06:36:38.646Z,2.79
2022-10-22T06:39:05.052Z,3.06
2022-10-22T06:41:31.426Z,3.18
2022-10-22T06:43:57.998Z,2.95
2022-10-22T06:46:24.519Z,2.99
2022-10-22T06:48:50.902Z,3.01
2022-10-22T06:51:17.262Z,3.07
2022-10-22T06:53:43.616Z,2.97
2022-10-22T06:56:09.981Z,2.94
2022-10-22T06:58:36.349Z,3.16
2022-10-22T07:01:02.818Z,2.88
2022-10-22T07:03:29.256Z,2.91
2022-10-22T07:05:55.695Z,2.81
2022-10-22T07:08:22.074Z,3.03
2022-10-22T07:10:48.445Z,3.01
2022-10-22T07:13:14.818Z,2.83
2022-10-22T07:15:41.173Z,3.12
2022-10-22T07:18:07.550Z,3.02
2022-10-22T07:20:33.905Z,2.86
2022-10-22T07:23:00.271Z,2.95
2022-10-22T07:25:26.750Z,3.07
2022-10-22T07:27:53.126Z,3.17
2022-10-22T07:30:19.494Z,3.28
2022-10-22T07:32:45.856Z,3.64
2022-10-22T07:35:12.225Z,3.88
2022-10-22T07:37:38.885Z,4.29
2022-10-22T07:40:05.489Z,4.67
2022-10-22T07:42:31.847Z,4.71
2022-10-22T07:44:58.211Z,5.04
2022-10-22T07:47:24.592Z,5.24
2022-10-22T07:49:50.949Z,5.18
2022-10-22T07:52:17.318Z,5.32
2022-10-22T07:54:43.680Z,5.68
2022-10-22T07:57:10.041Z,5.97
2022-10-22T07:59:36.405Z,5.94
2022-10-22T08:02:02.782Z,6.42
2022-10-22T08:04:29.171Z,6.83
2022-10-22T08:06:55.551Z,7.13
2022-10-22T08:09:21.926Z,7.12
2022-10-22T08:11:48.298Z,7.78
2022-10-22T08:14:14.677Z,7.93
2022-10-22T08:16:41.045Z,8.12
2022-10-22T08:19:07.415Z,8.67
2022-10-22T08:21:33.792Z,8.18
2022-10-22T08:24:00.204Z,8.46
2022-10-22T08:26:26.696Z,9.01
2022-10-22T08:28:53.072Z,9.32
2022-10-22T08:31:19.424Z,9.31
2022-10-22T08:33:45.799Z,9.40
2022-10-22T08:36:12.174Z,9.82
2022-10-22T08:38:38.529Z,9.98
2022-10-22T08:41:04.907Z,10.79
2022-10-22T08:43:31.295Z,10.58
2022-10-22T08:45:57.655Z,10.63
2022-10-22T08:48:24.021Z,11.22
2022-10-22T08:50:50.400Z,11.29
2022-10-22T08:53:16.773Z,11.62
2022-10-22T08:55:43.154Z,12.08
2022-10-22T08:58:09.549Z,11.84
2022-10-22T09:00:35.924Z,12.76
2022-10-22T09:03:02.298Z,12.66
2022-10-22T09:05:28.676Z,13.32
2022-10-22T09:07:55.044Z,13.29
2022-10-22T09:10:21.604Z,13.24
2022-10-22T09:12:47.964Z,13.44
2022-10-22T09:15:14.332Z,13.89
2022-10-22T09:17:41.081Z,13.92
2022-10-22T09:20:07.657Z,14.51
2022-10-22T09:25:01.611Z,14.72
2022-10-22T09:27:27.982Z,14.81
2022-10-22T09:29:54.374Z,14.60
2022-10-22T09:32:20.778Z,14.85
2022-10-22T09:34:47.154Z,14.62
2022-10-22T09:37:13.550Z,14.70
2022-10-22T09:39:39.917Z,15.03
2022-10-22T09:42:06.299Z,14.58
2022-10-22T09:44:32.689Z,14.29
2022-10-22T09:46:59.074Z,14.58
2022-10-22T09:49:25.452Z,14.26
2022-10-22T09:51:51.915Z,14.20
2022-10-22T09:54:18.293Z,14.25
2022-10-22T09:56:44.670Z,14.11
2022-10-22T09:59:11.040Z,14.12
2022-10-22T10:01:37.417Z,12.85
2022-10-22T10:04:08.400Z,11.86
2022-10-22T10:06:35.920Z,11.07
2022-10-22T10:09:02.335Z,10.88
2022-10-22T10:11:29.392Z,11.52
2022-10-22T10:13:55.968Z,11.36
2022-10-22T10:16:22.368Z,11.18
2022-10-22T10:18:48.741Z,11.70
2022-10-22T10:24:01.410Z,12.00
2022-10-22T10:26:27.779Z,12.05
2022-10-22T10:28:54.145Z,12.75
2022-10-22T10:31:20.525Z,12.93
2022-10-22T10:33:46.904Z,14.08
2022-10-22T10:36:13.276Z,15.84
2022-10-22T10:38:39.645Z,15.00
2022-10-22T10:41:06.019Z,15.34
2022-10-22T10:43:32.390Z,14.98
2022-10-22T10:45:58.769Z,14.48
2022-10-22T10:48:25.132Z,13.84
2022-10-22T10:50:51.512Z,13.74
2022-10-22T10:53:17.887Z,13.91
2022-10-22T10:55:44.274Z,13.77
2022-10-22T10:58:10.654Z,13.57
2022-10-22T11:00:37.027Z,12.81
2022-10-22T11:03:03.403Z,12.74
2022-10-22T11:05:29.783Z,12.57
2022-10-22T11:07:56.631Z,12.33
2022-10-22T11:10:23.271Z,12.61
2022-10-22T11:12:49.634Z,12.38
2022-10-22T11:15:16.006Z,12.15
2022-10-22T11:17:42.377Z,11.93
2022-10-22T11:20:08.748Z,12.14
2022-10-22T11:22:35.594Z,11.59
2022-10-22T11:25:01.975Z,12.49
2022-10-22T11:27:28.355Z,12.36
2022-10-22T11:29:54.722Z,11.93
2022-10-22T11:32:21.114Z,12.49
2022-10-22T11:34:47.502Z,14.00
2022-10-22T11:37:13.870Z,13.20
2022-10-22T11:39:40.244Z,13.44
2022-10-22T11:42:06.626Z,13.33
2022-10-22T11:44:33.089Z,13.12
2022-10-22T11:46:59.457Z,16.95
2022-10-22T11:49:25.825Z,16.05
2022-10-22T11:51:52.219Z,15.90
2022-10-22T11:54:18.584Z,16.09
2022-10-22T11:56:44.955Z,15.49
2022-10-22T11:59:11.338Z,15.28
2022-10-22T12:01:37.744Z,15.50
2022-10-22T12:04:04.183Z,15.06
2022-10-22T12:06:30.581Z,14.86
2022-10-22T12:08:56.984Z,14.93
2022-10-22T12:11:23.395Z,15.67
2022-10-22T12:13:49.786Z,15.24
2022-10-22T12:16:23.611Z,14.72
2022-10-22T12:19:02.534Z,15.68
2022-10-22T12:21:28.919Z,16.21
2022-10-22T12:23:55.294Z,14.86
2022-10-22T12:26:21.691Z,15.19
2022-10-22T12:28:48.138Z,15.13
2022-10-22T12:31:14.509Z,15.32
2022-10-22T12:33:40.877Z,15.46
2022-10-22T12:36:07.343Z,15.61
2022-10-22T12:38:33.742Z,15.80
2022-10-22T12:41:00.228Z,15.40
2022-10-22T12:43:26.617Z,15.99
2022-10-22T12:45:52.987Z,16.25
2022-10-22T12:48:19.366Z,15.22
2022-10-22T12:50:45.747Z,15.23
2022-10-22T12:53:12.142Z,15.26
2022-10-22T12:55:38.517Z,15.49
2022-10-22T12:58:04.898Z,16.05
2022-10-22T13:00:31.296Z,15.02
2022-10-22T13:02:57.773Z,15.33
2022-10-22T13:05:24.147Z,16.18
2022-10-22T13:07:50.519Z,15.99
2022-10-22T13:10:16.899Z,15.57
2022-10-22T13:12:43.487Z,16.15
2022-10-22T13:15:10.042Z,16.04
2022-10-22T13:17:36.422Z,16.33
2022-10-22T13:20:02.801Z,15.88
2022-10-22T13:22:29.168Z,15.49
2022-10-22T13:24:55.536Z,15.83
2022-10-22T13:27:21.921Z,15.60
2022-10-22T13:29:48.301Z,15.88
2022-10-22T13:32:14.679Z,15.58
2022-10-22T13:34:41.058Z,16.52
2022-10-22T13:37:07.430Z,15.73
2022-10-22T13:39:33.815Z,15.96
2022-10-22T13:42:00.183Z,15.87
2022-10-22T13:44:26.560Z,15.06
2022-10-22T13:46:52.937Z,14.98
2022-10-22T13:49:19.323Z,15.29
2022-10-22T13:51:45.710Z,15.36
2022-10-22T13:54:12.098Z,15.22
2022-10-22T13:56:38.485Z,14.56
2022-10-22T13:59:04.854Z,15.35
2022-10-22T14:01:31.217Z,14.56
2022-10-22T14:03:57.593Z,14.12
2022-10-22T14:06:24.101Z,13.57
2022-10-22T14:08:50.591Z,13.54
2022-10-22T14:11:17.022Z,13.70
2022-10-22T14:13:43.407Z,13.69
2022-10-22T14:16:09.772Z,13.47
2022-10-22T14:18:36.138Z,12.26
2022-10-22T14:21:02.522Z,11.48
2022-10-22T14:23:28.902Z,10.45
2022-10-22T14:25:55.268Z,11.19
2022-10-22T14:28:21.646Z,11.98
2022-10-22T14:30:48.018Z,12.03
2022-10-22T14:33:14.402Z,12.07
2022-10-22T14:35:40.772Z,11.29
2022-10-22T14:38:07.141Z,11.54
2022-10-22T14:40:33.520Z,12.10
2022-10-22T14:42:59.898Z,11.84
2022-10-22T14:45:26.274Z,11.74
2022-10-22T14:47:52.650Z,11.58
2022-10-22T14:50:19.029Z,12.18
2022-10-22T14:52:45.397Z,11.73
2022-10-22T14:55:11.767Z,11.81
2022-10-22T14:57:38.223Z,11.73
2022-10-22T15:00:04.676Z,11.40
2022-10-22T15:02:31.035Z,11.61
2022-10-22T15:07:43.952Z,11.69
2022-10-22T15:10:10.525Z,11.88
2022-10-22T15:12:36.904Z,11.63
2022-10-22T15:15:03.268Z,11.35
2022-10-22T15:17:29.648Z,11.23
2022-10-22T15:19:56.025Z,11.25
2022-10-22T15:22:22.399Z,11.25
2022-10-22T15:24:48.767Z,10.88
2022-10-22T15:27:15.125Z,11.47
2022-10-22T15:29:41.492Z,11.43
2022-10-22T15:32:07.865Z,11.19
2022-10-22T15:34:34.239Z,11.23
2022-10-22T15:37:00.623Z,11.12
2022-10-22T15:39:26.994Z,11.09
2022-10-22T15:41:53.378Z,11.14
2022-10-22T15:44:19.745Z,11.13
2022-10-22T15:46:46.178Z,10.44
2022-10-22T15:49:12.624Z,10.91
2022-10-22T15:51:38.996Z,10.74
2022-10-22T15:54:09.211Z,10.98
2022-10-22T15:56:36.479Z,11.01
2022-10-22T15:59:02.866Z,11.01
2022-10-22T16:01:29.284Z,10.63
2022-10-22T16:03:55.737Z,10.72
2022-10-22T16:06:22.109Z,10.31
2022-10-22T16:08:48.560Z,10.49
2022-10-22T16:11:14.948Z,10.58
2022-10-22T16:13:41.321Z,10.48
2022-10-22T16:16:07.690Z,10.35
2022-10-22T16:18:34.065Z,10.48
2022-10-22T16:21:00.458Z,10.52
2022-10-22T16:23:26.832Z,10.61
2022-10-22T16:25:53.201Z,10.18
2022-10-22T16:28:19.567Z,10.71
2022-10-22T16:30:45.942Z,10.10
2022-10-22T16:33:12.307Z,10.37
2022-10-22T16:35:38.690Z,9.81
2022-10-22T16:38:05.055Z,10.32
2022-10-22T16:40:31.423Z,9.89
2022-10-22T16:42:57.795Z,10.30
2022-10-22T16:45:24.174Z,10.16
2022-10-22T16:47:50.549Z,9.70
2022-10-22T16:50:16.926Z,9.95
2022-10-22T16:52:43.306Z,10.33
2022-10-22T16:55:09.667Z,10.12
2022-10-22T16:57:36.054Z,9.84
2022-10-22T17:00:02.430Z,10.04
2022-10-22T17:02:28.793Z,9.72
2022-10-22T17:04:55.165Z,9.74
2022-10-22T17:07:21.538Z,9.65
2022-10-22T17:09:47.912Z,9.56
2022-10-22T17:12:14.274Z,9.79
2022-10-22T17:14:40.642Z,9.40
2022-10-22T17:17:07.000Z,9.91
2022-10-22T17:19:33.364Z,9.99
2022-10-22T17:21:59.739Z,9.50
2022-10-22T17:24:26.110Z,9.62
2022-10-22T17:26:52.538Z,9.98
2022-10-22T17:29:18.912Z,9.76
2022-10-22T17:31:45.284Z,9.79
2022-10-22T17:34:11.653Z,9.12
2022-10-22T17:36:38.024Z,9.68
2022-10-22T17:39:04.386Z,9.31
2022-10-22T17:41:30.762Z,9.34
2022-10-22T17:43:57.149Z,9.69
2022-10-22T17:46:23.517Z,9.55
2022-10-22T17:48:49.881Z,9.53
2022-10-22T17:51:16.253Z,9.89
2022-10-22T17:53:42.628Z,9.49
2022-10-22T17:56:09.003Z,9.68
2022-10-22T17:58:35.465Z,9.79
2022-10-22T18:01:01.845Z,9.14
2022-10-22T18:03:28.273Z,9.68
2022-10-22T18:05:54.630Z,9.74
2022-10-22T18:08:21.012Z,9.79
2022-10-22T18:10:47.402Z,9.95
2022-10-22T18:13:13.768Z,9.91
2022-10-22T18:15:40.139Z,9.96
2022-10-22T18:18:06.521Z,9.99
2022-10-22T18:20:32.909Z,9.87
2022-10-22T18:22:59.270Z,10.06
2022-10-22T18:25:25.665Z,10.34
2022-10-22T18:27:52.078Z,10.45
2022-10-22T18:30:18.453Z,10.75
2022-10-22T18:32:44.840Z,10.47
2022-10-22T18:35:11.214Z,10.65
2022-10-22T18:37:37.585Z,10.75
2022-10-22T18:40:03.957Z,10.42
2022-10-22T18:42:32.879Z,10.16
2022-10-22T18:45:00.960Z,10.70
2022-10-22T18:47:27.318Z,11.11
2022-10-22T18:49:53.706Z,10.62
2022-10-22T18:52:20.081Z,12.10
2022-10-22T18:54:46.455Z,12.66
2022-10-22T18:57:12.826Z,11.75
2022-10-22T18:59:39.194Z,11.50
2022-10-22T19:02:05.572Z,11.69
2022-10-22T19:04:31.945Z,11.81
2022-10-22T19:06:58.445Z,8.54
2022-10-22T19:09:24.865Z,7.72
2022-10-22T19:11:51.234Z,9.20
2022-10-22T19:14:17.598Z,9.37
2022-10-22T19:16:43.969Z,9.87
2022-10-22T19:19:10.332Z,10.23
2022-10-22T19:21:36.709Z,10.60
2022-10-22T19:24:03.075Z,10.22
2022-10-22T19:26:29.453Z,10.28
2022-10-22T19:28:55.813Z,10.20
2022-10-22T19:31:22.199Z,10.18
2022-10-22T19:33:48.586Z,10.23
2022-10-22T19:36:14.955Z,9.87
2022-10-22T19:38:41.322Z,10.02
2022-10-22T19:41:07.688Z,10.35
2022-10-22T19:43:34.053Z,10.03
2022-10-22T19:46:00.422Z,10.25
2022-10-22T19:48:26.790Z,10.14
2022-10-22T19:50:53.165Z,10.05
2022-10-22T19:53:19.527Z,9.62
2022-10-22T19:55:45.902Z,9.37
2022-10-22T19:58:12.261Z,9.12
2022-10-22T20:00:38.629Z,9.44
2022-10-22T20:03:05.425Z,9.42
2022-10-22T20:05:31.791Z,9.52
2022-10-22T20:07:58.166Z,9.49
2022-10-22T20:10:24.516Z,9.50
2022-10-22T20:12:50.881Z,9.25
2022-10-22T20:15:17.250Z,9.34
2022-10-22T20:17:44.026Z,9.39
2022-10-22T20:20:10.567Z,9.01
2022-10-22T20:22:36.927Z,8.92
2022-10-22T20:25:03.290Z,8.95
2022-10-22T20:27:29.663Z,8.76
2022-10-22T20:29:56.029Z,8.85
2022-10-22T20:32:22.390Z,8.93
2022-10-22T20:34:48.765Z,8.88
2022-10-22T20:37:15.127Z,8.63
2022-10-22T20:39:41.480Z,8.73
2022-10-22T20:42:07.855Z,8.29
2022-10-22T20:44:34.217Z,8.69
2022-10-22T20:47:00.599Z,8.86
2022-10-22T20:49:26.955Z,8.69
2022-10-22T20:51:53.316Z,8.37
2022-10-22T20:54:19.682Z,8.60
2022-10-22T20:56:46.042Z,8.31
2022-10-22T20:59:15.172Z,8.60
2022-10-22T21:01:41.533Z,8.18
2022-10-22T21:04:07.916Z,8.41
2022-10-22T21:06:34.291Z,8.45
2022-10-22T21:09:00.739Z,8.35
2022-10-22T21:11:27.175Z,7.74
2022-10-22T21:13:53.542Z,7.90
2022-10-22T21:16:19.916Z,7.97
2022-10-22T21:18:46.296Z,8.24
2022-10-22T21:21:12.660Z,8.34
2022-10-22T21:23:39.025Z,7.83
2022-10-22T21:26:05.379Z,8.16
2022-10-22T21:28:31.752Z,7.64
2022-10-22T21:30:58.130Z,7.37
2022-10-22T21:33:24.496Z,7.82
2022-10-22T21:35:50.868Z,7.86
2022-10-22T21:38:17.283Z,7.81
2022-10-22T21:40:43.639Z,7.45
2022-10-22T21:43:10.009Z,7.32
2022-10-22T21:45:36.399Z,7.47
2022-10-22T21:48:02.764Z,7.05
2022-10-22T21:50:29.144Z,7.63
2022-10-22T21:52:55.512Z,7.36
2022-10-22T21:55:21.874Z,7.01
2022-10-22T21:57:48.296Z,6.91
2022-10-22T22:00:14.667Z,6.81
2022-10-22T22:02:41.246Z,7.11
2022-10-22T22:05:07.799Z,6.77
2022-10-22T22:07:34.169Z,6.85
2022-10-22T22:10:00.538Z,7.14
2022-10-22T22:12:26.922Z,6.86
2022-10-22T22:14:53.290Z,6.85
2022-10-22T22:17:19.653Z,6.94
2022-10-22T22:19:46.026Z,6.51
2022-10-22T22:22:12.386Z,6.60
2022-10-22T22:24:38.754Z,6.55
2022-10-22T22:27:05.120Z,6.87
2022-10-22T22:29:31.480Z,6.55
2022-10-22T22:31:57.848Z,6.47
2022-10-22T22:34:24.209Z,6.65
2022-10-22T22:36:50.576Z,6.29
2022-10-22T22:39:16.951Z,6.47
2022-10-22T22:41:43.313Z,6.40
2022-10-22T22:44:09.766Z,6.35
2022-10-22T22:46:36.120Z,6.43
2022-10-22T22:49:02.494Z,6.36
2022-10-22T22:51:28.864Z,6.29
2022-10-22T22:53:55.298Z,6.27
2022-10-22T22:56:21.665Z,6.49
2022-10-22T22:58:48.077Z,6.60
2022-10-22T23:01:14.448Z,6.39
2022-10-22T23:03:40.837Z,6.34
2022-10-22T23:06:07.222Z,6.08
2022-10-22T23:08:33.651Z,6.21
2022-10-22T23:11:00.035Z,6.30
2022-10-22T23:13:26.408Z,6.30
2022-10-22T23:15:52.768Z,6.20
2022-10-22T23:18:19.148Z,5.96
2022-10-22T23:20:45.514Z,5.99
2022-10-22T23:23:11.876Z,6.12
2022-10-22T23:25:38.244Z,5.92
2022-10-22T23:28:04.607Z,5.97
2022-10-22T23:30:31.213Z,5.93
2022-10-22T23:32:57.627Z,5.82
2022-10-22T23:35:24.002Z,5.65
2022-10-22T23:37:50.378Z,5.72
2022-10-22T23:40:16.754Z,5.47
2022-10-22T23:42:43.114Z,5.60
2022-10-22T23:45:09.481Z,5.85
2022-10-22T23:47:35.844Z,5.48
2022-10-22T23:50:02.248Z,5.93
2022-10-22T23:52:28.621Z,5.64
2022-10-22T23:54:54.985Z,5.62
2022-10-22T23:57:21.348Z,5.46
2022-10-22T23:59:47.717Z,5.25
